M/T Vemaoil Xi — 9HWD7 — position and weather

sailwx.info

Track history (hours):
 
Tides and Currents Weather Stations Pressure Air Temp Water Temp Dewpoint Dewpoint Depression Visibility Wind Speed Wind Dir Waves Ship Positions

M/T Vemaoil Xi

Last reported at 2015-Aug-27 15:29 UTC. Time now 2015-Aug-28 05:15 UTC.
Position N 35°49' E 014°35'.

Length 105 m; draft 6.6 m.

Type: Tanker. MMSI: 215631000.

Date/timePositionNaut miles runAvg speedWind from/ knotsBaromVisibWave heightAir tempDewpointWater temp
2015-Aug-27 15:29N 35°49' E 014°35'0 0.0
2015-Aug-27 05:20N 35°49' E 014°35'0 0.0
2015-Aug-27 03:08N 35°49' E 014°35'0 0.0
2015-Aug-27 01:17N 35°49' E 014°35'0 0.0
2015-Aug-27 00:32N 35°49' E 014°35'0 0.1
2015-Aug-26 21:10N 35°49' E 014°35'3 4.4
2015-Aug-26 20:33N 35°52' E 014°36'5 0.3
2015-Aug-26 06:22N 35°53' E 014°30'2 3.0
2015-Aug-26 05:33N 35°54' E 014°33'5 4.8
2015-Aug-26 04:32N 35°50' E 014°36'0 0.0
2015-Aug-26 03:32N 35°50' E 014°36'0 0.0
2015-Aug-26 02:29N 35°50' E 014°36'0 0.0
2015-Aug-26 01:23N 35°50' E 014°36'0 0.1
2015-Aug-26 00:32N 35°50' E 014°36'2 2.0
2015-Aug-25 23:33N 35°49' E 014°33'1 0.9
2015-Aug-25 22:32N 35°49' E 014°32'0 0.0
2015-Aug-25 21:31N 35°49' E 014°32'0 0.0
2015-Aug-25 20:31N 35°49' E 014°32'0 0.0
2015-Aug-25 18:10N 35°49' E 014°32'0 0.1
2015-Aug-25 17:28N 35°49' E 014°32'0 0.0
2015-Aug-25 16:31N 35°49' E 014°32'0 0.0
2015-Aug-25 15:28N 35°49' E 014°32'0 0.0
2015-Aug-25 14:19N 35°49' E 014°32'0 0.0
2015-Aug-25 12:31N 35°49' E 014°32'0 0.0
2015-Aug-25 11:10N 35°49' E 014°32'0 0.1
2015-Aug-25 09:29N 35°49' E 014°32'5 5.0
2015-Aug-25 08:33N 35°50' E 014°38'7 6.6
2015-Aug-25 07:33N 35°54' E 014°45'0 0.3
2015-Aug-25 06:26N 35°54' E 014°45'0 0.0
2015-Aug-25 05:32N 35°54' E 014°45'0 0.0
2015-Aug-25 04:29N 35°54' E 014°45'0 0.0
2015-Aug-25 03:32N 35°54' E 014°45'0 0.0
2015-Aug-25 02:32N 35°54' E 014°45'0 0.1
2015-Aug-25 01:32N 35°54' E 014°45'0 0.0
2015-Aug-25 00:32N 35°54' E 014°45'0 0.0
2015-Aug-24 23:14N 35°54' E 014°45'0 0.0
2015-Aug-24 22:32N 35°54' E 014°45'0 0.0
2015-Aug-24 21:32N 35°54' E 014°45'0 0.0
2015-Aug-24 20:32N 35°54' E 014°45'0 0.1
2015-Aug-24 19:33N 35°54' E 014°45'6 6.3
2015-Aug-24 18:33N 35°50' E 014°39'5 4.3
2015-Aug-24 17:18N 35°49' E 014°33'0 0.0
2015-Aug-24 16:33N 35°49' E 014°33'0 0.0
2015-Aug-24 14:24N 35°49' E 014°33'0 0.0
2015-Aug-24 13:24N 35°49' E 014°33'0 0.0
2015-Aug-24 08:24N 35°49' E 014°33'0 0.0
2015-Aug-24 06:33N 35°49' E 014°33'0 0.0
2015-Aug-24 05:30N 35°49' E 014°33'0 0.0
2015-Aug-24 04:30N 35°49' E 014°33'2 1.8
2015-Aug-24 03:31N 35°49' E 014°35'0 0.1
2015-Aug-24 02:31N 35°49' E 014°35'0 0.0
2015-Aug-24 01:31N 35°49' E 014°35'0 0.0
2015-Aug-24 00:31N 35°49' E 014°35'0 0.1
2015-Aug-23 23:31N 35°49' E 014°35'0 0.0
2015-Aug-23 22:31N 35°49' E 014°35'0 0.0
2015-Aug-23 20:10N 35°49' E 014°35'0 0.0
2015-Aug-23 12:31N 35°49' E 014°35'1 0.2
2015-Aug-23 08:14N 35°49' E 014°36'5 7.0
2015-Aug-23 07:33N 35°51' E 014°41'6 1.9
2015-Aug-23 04:26N 35°55' E 014°47'0 0.0
2015-Aug-23 03:26N 35°55' E 014°47'0 0.0
2015-Aug-23 02:20N 35°55' E 014°47'0 0.0
2015-Aug-23 00:08N 35°55' E 014°47'0 0.0
2015-Aug-22 23:29N 35°55' E 014°47'0 0.0
2015-Aug-22 22:26N 35°55' E 014°47'0 0.0
2015-Aug-22 19:32N 35°55' E 014°47'0 0.3
2015-Aug-22 18:33N 35°54' E 014°47'6 6.4
2015-Aug-22 17:33N 35°54' E 014°39'6 0.6
2015-Aug-22 06:23N 35°54' E 014°31'1 1.2
2015-Aug-22 05:28N 35°54' E 014°33'0 0.2
2015-Aug-22 04:33N 35°54' E 014°33'5 3.7
2015-Aug-22 03:15N 35°50' E 014°36'0 0.0
2015-Aug-22 01:24N 35°50' E 014°36'0 0.0
2015-Aug-22 00:21N 35°50' E 014°36'0 0.0
2015-Aug-21 23:33N 35°50' E 014°36'0 0.0
2015-Aug-21 22:33N 35°50' E 014°36'2 1.7
2015-Aug-21 21:31N 35°51' E 014°38'6 6.7
2015-Aug-21 20:34N 35°54' E 014°44'1 0.5
2015-Aug-21 19:31N 35°54' E 014°45'0 0.0
2015-Aug-21 18:31N 35°54' E 014°45'0 0.0
2015-Aug-21 16:31N 35°54' E 014°45'0 0.0
2015-Aug-21 13:07N 35°54' E 014°45'0 0.0
2015-Aug-21 12:28N 35°54' E 014°45'0 0.0
2015-Aug-21 11:28N 35°54' E 014°45'0 0.2
2015-Aug-21 10:21N 35°54' E 014°45'1 1.7
2015-Aug-21 09:31N 35°53' E 014°45'0 0.0
2015-Aug-21 08:31N 35°53' E 014°45'0 0.0
2015-Aug-21 06:10N 35°53' E 014°45'1 0.3
2015-Aug-21 04:32N 35°52' E 014°45'0 0.3
2015-Aug-21 03:33N 35°52' E 014°45'0 0.0
2015-Aug-21 02:33N 35°52' E 014°45'0 0.0
2015-Aug-21 01:34N 35°52' E 014°45'0 0.0
2015-Aug-21 00:34N 35°52' E 014°45'0 0.0
2015-Aug-20 23:33N 35°52' E 014°45'4 3.5
2015-Aug-20 22:24N 35°50' E 014°41'7 1.6
2015-Aug-20 18:09N 35°49' E 014°33'0 0.0
2015-Aug-20 17:33N 35°49' E 014°33'0 0.0
2015-Aug-20 16:33N 35°49' E 014°33'0 0.0
2015-Aug-20 15:33N 35°49' E 014°33'0 0.0
2015-Aug-20 14:33N 35°49' E 014°33'0 0.0
2015-Aug-20 13:33N 35°49' E 014°33'0 0.0
2015-Aug-20 12:33N 35°49' E 014°33'0 0.0
2015-Aug-20 11:33N 35°49' E 014°33'0 0.5
2015-Aug-20 10:33N 35°49' E 014°33'2 0.7
2015-Aug-20 08:22N 35°49' E 014°35'0 0.0
2015-Aug-20 07:31N 35°49' E 014°35'0 0.0
2015-Aug-20 06:31N 35°49' E 014°35'0 0.0
2015-Aug-20 05:31N 35°49' E 014°35'0 0.0
2015-Aug-20 04:25N 35°49' E 014°35'0 0.0
2015-Aug-20 03:22N 35°49' E 014°35'0 0.0
2015-Aug-19 22:31N 35°49' E 014°35'0 0.0
2015-Aug-19 21:07N 35°49' E 014°35'0 0.0
2015-Aug-19 20:22N 35°49' E 014°35'0 0.0
2015-Aug-19 19:19N 35°49' E 014°35'0 0.0
2015-Aug-19 18:31N 35°49' E 014°35'1 1.2
2015-Aug-19 17:33N 35°50' E 014°37'7 6.7
2015-Aug-19 16:31N 35°52' E 014°45'0 0.1
2015-Aug-19 15:31N 35°52' E 014°45'0 0.0
2015-Aug-19 14:31N 35°52' E 014°45'0 0.0
2015-Aug-19 13:31N 35°52' E 014°45'0 0.0
2015-Aug-19 12:31N 35°52' E 014°45'2 2.2
2015-Aug-19 11:33N 35°51' E 014°42'6 6.3
2015-Aug-19 10:34N 35°49' E 014°35'0 0.1
2015-Aug-19 09:33N 35°49' E 014°35'0 0.0
2015-Aug-19 03:13N 35°49' E 014°35'0 0.0
2015-Aug-19 00:04N 35°49' E 014°35'0 0.2
2015-Aug-18 23:15N 35°49' E 014°35'0 0.1
2015-Aug-18 21:16N 35°49' E 014°35'0 0.0
2015-Aug-18 20:30N 35°49' E 014°35'0 0.0
2015-Aug-18 19:34N 35°49' E 014°35'0 0.0
2015-Aug-18 18:33N 35°49' E 014°35'0 0.1
2015-Aug-18 17:31N 35°49' E 014°35'2 1.7
2015-Aug-18 16:13N 35°49' E 014°32'0 0.0
2015-Aug-18 14:31N 35°49' E 014°32'0 0.0
2015-Aug-18 13:28N 35°49' E 014°32'0 0.0
2015-Aug-18 11:31N 35°49' E 014°32'0 0.0
2015-Aug-18 10:31N 35°49' E 014°32'0 0.1
2015-Aug-18 06:33N 35°49' E 014°33'5 4.8
2015-Aug-18 05:33N 35°50' E 014°39'0 0.1
2015-Aug-18 04:33N 35°50' E 014°39'0 0.0
2015-Aug-18 04:09N 35°50' E 014°39'0 0.0
2015-Aug-18 04:08N 35°50' E 014°39'0 0.0
2015-Aug-18 03:33N 35°50' E 014°39'0 0.0
2015-Aug-18 02:33N 35°50' E 014°39'0 0.0
2015-Aug-18 01:33N 35°50' E 014°39'0 0.0
2015-Aug-18 00:33N 35°50' E 014°39'0 0.0
2015-Aug-17 23:33N 35°50' E 014°39'3 2.6
2015-Aug-17 22:33N 35°52' E 014°36'  
Track history (hours):
 
Tides and Currents Weather Stations Pressure Air Temp Water Temp Dewpoint Dewpoint Depression Visibility Wind Speed Wind Dir Waves Ship Positions

M/T Vemaoil Xi

Last reported at 2015-Aug-27 15:29 UTC. Time now 2015-Aug-28 05:15 UTC.
Position N 35°49' E 014°35'.

Length 105 m; draft 6.6 m.

Type: Tanker. MMSI: 215631000.

Date/timePositionNaut miles runAvg speedWind from/ knotsBaromVisibWave heightAir tempDewpointWater temp
2015-Aug-27 15:29N 35°49' E 014°35'0 0.0
2015-Aug-27 05:20N 35°49' E 014°35'0 0.0
2015-Aug-27 03:08N 35°49' E 014°35'0 0.0
2015-Aug-27 01:17N 35°49' E 014°35'0 0.0
2015-Aug-27 00:32N 35°49' E 014°35'0 0.1
2015-Aug-26 21:10N 35°49' E 014°35'3 4.4
2015-Aug-26 20:33N 35°52' E 014°36'5 0.3
2015-Aug-26 06:22N 35°53' E 014°30'2 3.0
2015-Aug-26 05:33N 35°54' E 014°33'5 4.8
2015-Aug-26 04:32N 35°50' E 014°36'0 0.0
2015-Aug-26 03:32N 35°50' E 014°36'0 0.0
2015-Aug-26 02:29N 35°50' E 014°36'0 0.0
2015-Aug-26 01:23N 35°50' E 014°36'0 0.1
2015-Aug-26 00:32N 35°50' E 014°36'2 2.0
2015-Aug-25 23:33N 35°49' E 014°33'1 0.9
2015-Aug-25 22:32N 35°49' E 014°32'0 0.0
2015-Aug-25 21:31N 35°49' E 014°32'0 0.0
2015-Aug-25 20:31N 35°49' E 014°32'0 0.0
2015-Aug-25 18:10N 35°49' E 014°32'0 0.1
2015-Aug-25 17:28N 35°49' E 014°32'0 0.0
2015-Aug-25 16:31N 35°49' E 014°32'0 0.0
2015-Aug-25 15:28N 35°49' E 014°32'0 0.0
2015-Aug-25 14:19N 35°49' E 014°32'0 0.0
2015-Aug-25 12:31N 35°49' E 014°32'0 0.0
2015-Aug-25 11:10N 35°49' E 014°32'0 0.1
2015-Aug-25 09:29N 35°49' E 014°32'5 5.0
2015-Aug-25 08:33N 35°50' E 014°38'7 6.6
2015-Aug-25 07:33N 35°54' E 014°45'0 0.3
2015-Aug-25 06:26N 35°54' E 014°45'0 0.0
2015-Aug-25 05:32N 35°54' E 014°45'0 0.0
2015-Aug-25 04:29N 35°54' E 014°45'0 0.0
2015-Aug-25 03:32N 35°54' E 014°45'0 0.0
2015-Aug-25 02:32N 35°54' E 014°45'0 0.1
2015-Aug-25 01:32N 35°54' E 014°45'0 0.0
2015-Aug-25 00:32N 35°54' E 014°45'0 0.0
2015-Aug-24 23:14N 35°54' E 014°45'0 0.0
2015-Aug-24 22:32N 35°54' E 014°45'0 0.0
2015-Aug-24 21:32N 35°54' E 014°45'0 0.0
2015-Aug-24 20:32N 35°54' E 014°45'0 0.1
2015-Aug-24 19:33N 35°54' E 014°45'6 6.3
2015-Aug-24 18:33N 35°50' E 014°39'5 4.3
2015-Aug-24 17:18N 35°49' E 014°33'0 0.0
2015-Aug-24 16:33N 35°49' E 014°33'0 0.0
2015-Aug-24 14:24N 35°49' E 014°33'0 0.0
2015-Aug-24 13:24N 35°49' E 014°33'0 0.0
2015-Aug-24 08:24N 35°49' E 014°33'0 0.0
2015-Aug-24 06:33N 35°49' E 014°33'0 0.0
2015-Aug-24 05:30N 35°49' E 014°33'0 0.0
2015-Aug-24 04:30N 35°49' E 014°33'2 1.8
2015-Aug-24 03:31N 35°49' E 014°35'0 0.1
2015-Aug-24 02:31N 35°49' E 014°35'0 0.0
2015-Aug-24 01:31N 35°49' E 014°35'0 0.0
2015-Aug-24 00:31N 35°49' E 014°35'0 0.1
2015-Aug-23 23:31N 35°49' E 014°35'0 0.0
2015-Aug-23 22:31N 35°49' E 014°35'0 0.0
2015-Aug-23 20:10N 35°49' E 014°35'0 0.0
2015-Aug-23 12:31N 35°49' E 014°35'1 0.2
2015-Aug-23 08:14N 35°49' E 014°36'5 7.0
2015-Aug-23 07:33N 35°51' E 014°41'6 1.9
2015-Aug-23 04:26N 35°55' E 014°47'0 0.0
2015-Aug-23 03:26N 35°55' E 014°47'0 0.0
2015-Aug-23 02:20N 35°55' E 014°47'0 0.0
2015-Aug-23 00:08N 35°55' E 014°47'0 0.0
2015-Aug-22 23:29N 35°55' E 014°47'0 0.0
2015-Aug-22 22:26N 35°55' E 014°47'0 0.0
2015-Aug-22 19:32N 35°55' E 014°47'0 0.3
2015-Aug-22 18:33N 35°54' E 014°47'6 6.4
2015-Aug-22 17:33N 35°54' E 014°39'6 0.6
2015-Aug-22 06:23N 35°54' E 014°31'1 1.2
2015-Aug-22 05:28N 35°54' E 014°33'0 0.2
2015-Aug-22 04:33N 35°54' E 014°33'5 3.7
2015-Aug-22 03:15N 35°50' E 014°36'0 0.0
2015-Aug-22 01:24N 35°50' E 014°36'0 0.0
2015-Aug-22 00:21N 35°50' E 014°36'0 0.0
2015-Aug-21 23:33N 35°50' E 014°36'0 0.0
2015-Aug-21 22:33N 35°50' E 014°36'2 1.7
2015-Aug-21 21:31N 35°51' E 014°38'6 6.7
2015-Aug-21 20:34N 35°54' E 014°44'1 0.5
2015-Aug-21 19:31N 35°54' E 014°45'0 0.0
2015-Aug-21 18:31N 35°54' E 014°45'0 0.0
2015-Aug-21 16:31N 35°54' E 014°45'0 0.0
2015-Aug-21 13:07N 35°54' E 014°45'0 0.0
2015-Aug-21 12:28N 35°54' E 014°45'0 0.0
2015-Aug-21 11:28N 35°54' E 014°45'0 0.2
2015-Aug-21 10:21N 35°54' E 014°45'1 1.7
2015-Aug-21 09:31N 35°53' E 014°45'0 0.0
2015-Aug-21 08:31N 35°53' E 014°45'0 0.0
2015-Aug-21 06:10N 35°53' E 014°45'1 0.3
2015-Aug-21 04:32N 35°52' E 014°45'0 0.3
2015-Aug-21 03:33N 35°52' E 014°45'0 0.0
2015-Aug-21 02:33N 35°52' E 014°45'0 0.0
2015-Aug-21 01:34N 35°52' E 014°45'0 0.0
2015-Aug-21 00:34N 35°52' E 014°45'0 0.0
2015-Aug-20 23:33N 35°52' E 014°45'4 3.5
2015-Aug-20 22:24N 35°50' E 014°41'7 1.6
2015-Aug-20 18:09N 35°49' E 014°33'0 0.0
2015-Aug-20 17:33N 35°49' E 014°33'0 0.0
2015-Aug-20 16:33N 35°49' E 014°33'0 0.0
2015-Aug-20 15:33N 35°49' E 014°33'0 0.0
2015-Aug-20 14:33N 35°49' E 014°33'0 0.0
2015-Aug-20 13:33N 35°49' E 014°33'0 0.0
2015-Aug-20 12:33N 35°49' E 014°33'0 0.0
2015-Aug-20 11:33N 35°49' E 014°33'0 0.5
2015-Aug-20 10:33N 35°49' E 014°33'2 0.7
2015-Aug-20 08:22N 35°49' E 014°35'0 0.0
2015-Aug-20 07:31N 35°49' E 014°35'0 0.0
2015-Aug-20 06:31N 35°49' E 014°35'0 0.0
2015-Aug-20 05:31N 35°49' E 014°35'0 0.0
2015-Aug-20 04:25N 35°49' E 014°35'0 0.0
2015-Aug-20 03:22N 35°49' E 014°35'0 0.0
2015-Aug-19 22:31N 35°49' E 014°35'0 0.0
2015-Aug-19 21:07N 35°49' E 014°35'0 0.0
2015-Aug-19 20:22N 35°49' E 014°35'0 0.0
2015-Aug-19 19:19N 35°49' E 014°35'0 0.0
2015-Aug-19 18:31N 35°49' E 014°35'1 1.2
2015-Aug-19 17:33N 35°50' E 014°37'7 6.7
2015-Aug-19 16:31N 35°52' E 014°45'0 0.1
2015-Aug-19 15:31N 35°52' E 014°45'0 0.0
2015-Aug-19 14:31N 35°52' E 014°45'0 0.0
2015-Aug-19 13:31N 35°52' E 014°45'0 0.0
2015-Aug-19 12:31N 35°52' E 014°45'2 2.2
2015-Aug-19 11:33N 35°51' E 014°42'6 6.3
2015-Aug-19 10:34N 35°49' E 014°35'0 0.1
2015-Aug-19 09:33N 35°49' E 014°35'0 0.0
2015-Aug-19 03:13N 35°49' E 014°35'0 0.0
2015-Aug-19 00:04N 35°49' E 014°35'0 0.2
2015-Aug-18 23:15N 35°49' E 014°35'0 0.1
2015-Aug-18 21:16N 35°49' E 014°35'0 0.0
2015-Aug-18 20:30N 35°49' E 014°35'0 0.0
2015-Aug-18 19:34N 35°49' E 014°35'0 0.0
2015-Aug-18 18:33N 35°49' E 014°35'0 0.1
2015-Aug-18 17:31N 35°49' E 014°35'2 1.7
2015-Aug-18 16:13N 35°49' E 014°32'0 0.0
2015-Aug-18 14:31N 35°49' E 014°32'0 0.0
2015-Aug-18 13:28N 35°49' E 014°32'0 0.0
2015-Aug-18 11:31N 35°49' E 014°32'0 0.0
2015-Aug-18 10:31N 35°49' E 014°32'0 0.1
2015-Aug-18 06:33N 35°49' E 014°33'5 4.8
2015-Aug-18 05:33N 35°50' E 014°39'0 0.1
2015-Aug-18 04:33N 35°50' E 014°39'0 0.0
2015-Aug-18 04:09N 35°50' E 014°39'0 0.0
2015-Aug-18 04:08N 35°50' E 014°39'0 0.0
2015-Aug-18 03:33N 35°50' E 014°39'0 0.0
2015-Aug-18 02:33N 35°50' E 014°39'0 0.0
2015-Aug-18 01:33N 35°50' E 014°39'0 0.0
2015-Aug-18 00:33N 35°50' E 014°39'0 0.0
2015-Aug-17 23:33N 35°50' E 014°39'3 2.6
2015-Aug-17 22:33N 35°52' E 014°36'  

Dump ship's entire track history